sensor_id;sensor_type;location;lat;lon;timestamp;pressure;altitude;pressure_sealevel;temperature;humidity
20145;BME280;10233;50.814;6.590;2023-04-07T00:00:15;100051.22;;;10.00;100.00
20145;BME280;10233;50.814;6.590;2023-04-07T00:01:17;100051.81;;;10.02;100.00
20145;BME280;10233;50.814;6.590;2023-04-07T00:02:17;100046.34;;;10.10;100.00
20145;BME280;10233;50.814;6.590;2023-04-07T00:03:18;100043.06;;;10.21;100.00
20145;BME280;10233;50.814;6.590;2023-04-07T00:04:19;100053.06;;;10.06;100.00
20145;BME280;10233;50.814;6.590;2023-04-07T00:05:20;100043.47;;;10.18;100.00
20145;BME280;10233;50.814;6.590;2023-04-07T00:06:20;100050.00;;;10.09;100.00
20145;BME280;10233;50.814;6.590;2023-04-07T00:07:21;100041.63;;;10.12;100.00
20145;BME280;10233;50.814;6.590;2023-04-07T00:08:21;100049.19;;;10.09;100.00
20145;BME280;10233;50.814;6.590;2023-04-07T00:09:22;100056.53;;;10.07;100.00
20145;BME280;10233;50.814;6.590;2023-04-07T00:10:23;100056.53;;;10.00;100.00
20145;BME280;10233;50.814;6.590;2023-04-07T00:11:24;100055.28;;;10.03;100.00
20145;BME280;10233;50.814;6.590;2023-04-07T00:12:25;100050.56;;;9.92;100.00
20145;BME280;10233;50.814;6.590;2023-04-07T00:13:25;100052.63;;;10.03;100.00
20145;BME280;10233;50.814;6.590;2023-04-07T00:14:26;100054.88;;;9.93;100.00
20145;BME280;10233;50.814;6.590;2023-04-07T00:15:26;100052.81;;;9.95;100.00
20145;BME280;10233;50.814;6.590;2023-04-07T00:16:27;100060.59;;;10.03;100.00
20145;BME280;10233;50.814;6.590;2023-04-07T00:17:28;100055.28;;;9.96;100.00
20145;BME280;10233;50.814;6.590;2023-04-07T00:18:28;100054.88;;;9.93;100.00
20145;BME280;10233;50.814;6.590;2023-04-07T00:19:29;100057.53;;;9.93;100.00
20145;BME280;10233;50.814;6.590;2023-04-07T00:20:29;100062.19;;;9.84;100.00
20145;BME280;10233;50.814;6.590;2023-04-07T00:21:30;100056.91;;;9.97;100.00
20145;BME280;10233;50.814;6.590;2023-04-07T00:22:30;100057.75;;;9.98;100.00
20145;BME280;10233;50.814;6.590;2023-04-07T00:23:31;100062.22;;;9.97;100.00
20145;BME280;10233;50.814;6.590;2023-04-07T00:24:32;100060.59;;;9.96;100.00
20145;BME280;10233;50.814;6.590;2023-04-07T00:25:33;100060.16;;;9.99;100.00
20145;BME280;10233;50.814;6.590;2023-04-07T00:26:33;100058.94;;;10.02;100.00
20145;BME280;10233;50.814;6.590;2023-04-07T00:27:34;100057.38;;;10.07;100.00
20145;BME280;10233;50.814;6.590;2023-04-07T00:28:40;100059.41;;;10.05;100.00
20145;BME280;10233;50.814;6.590;2023-04-07T00:29:41;100058.59;;;10.05;100.00
20145;BME280;10233;50.814;6.590;2023-04-07T00:30:43;100055.69;;;10.00;100.00
20145;BME280;10233;50.814;6.590;2023-04-07T00:31:43;100052.44;;;9.98;100.00
20145;BME280;10233;50.814;6.590;2023-04-07T00:32:44;100056.75;;;10.05;100.00
20145;BME280;10233;50.814;6.590;2023-04-07T00:33:44;100061.06;;;10.13;100.00
20145;BME280;10233;50.814;6.590;2023-04-07T00:34:45;100052.44;;;10.04;100.00
20145;BME280;10233;50.814;6.590;2023-04-07T00:35:46;100053.69;;;10.08;100.00
20145;BME280;10233;50.814;6.590;2023-04-07T00:36:46;100059.41;;;10.05;100.00
20145;BME280;10233;50.814;6.590;2023-04-07T00:37:51;100059.97;;;10.01;100.00
20145;BME280;10233;50.814;6.590;2023-04-07T00:38:52;100062.03;;;9.99;100.00
20145;BME280;10233;50.814;6.590;2023-04-07T00:39:52;100056.34;;;10.08;100.00
20145;BME280;10233;50.814;6.590;2023-04-07T00:40:57;100062.03;;;9.99;100.00
20145;BME280;10233;50.814;6.590;2023-04-07T00:41:58;100061.59;;;10.02;100.00
20145;BME280;10233;50.814;6.590;2023-04-07T00:42:59;100054.88;;;9.99;100.00
20145;BME280;10233;50.814;6.590;2023-04-07T00:43:59;100056.09;;;10.03;100.00
20145;BME280;10233;50.814;6.590;2023-04-07T00:45:00;100063.06;;;10.04;100.00
20145;BME280;10233;50.814;6.590;2023-04-07T00:46:01;100066.97;;;10.08;100.00
20145;BME280;10233;50.814;6.590;2023-04-07T00:47:02;100060.81;;;10.01;100.00
20145;BME280;10233;50.814;6.590;2023-04-07T00:48:03;100054.28;;;10.04;100.00
20145;BME280;10233;50.814;6.590;2023-04-07T00:49:05;100057.78;;;10.11;100.00
20145;BME280;10233;50.814;6.590;2023-04-07T00:50:06;100055.72;;;10.06;100.00
20145;BME280;10233;50.814;6.590;2023-04-07T00:51:07;100054.09;;;10.12;100.00
20145;BME280;10233;50.814;6.590;2023-04-07T00:52:08;100053.69;;;10.15;100.00
20145;BME280;10233;50.814;6.590;2023-04-07T00:53:11;100059.19;;;10.13;100.00
20145;BME280;10233;50.814;6.590;2023-04-07T00:54:12;100055.94;;;10.05;100.00
20145;BME280;10233;50.814;6.590;2023-04-07T00:55:12;100049.16;;;10.02;100.00
20145;BME280;10233;50.814;6.590;2023-04-07T00:56:13;100051.81;;;10.02;100.00
20145;BME280;10233;50.814;6.590;2023-04-07T00:57:14;100050.19;;;10.01;100.00
20145;BME280;10233;50.814;6.590;2023-04-07T00:58:14;100055.72;;;10.06;100.00
20145;BME280;10233;50.814;6.590;2023-04-07T00:59:16;100051.84;;;10.09;100.00
20145;BME280;10233;50.814;6.590;2023-04-07T01:00:17;100052.44;;;10.11;100.00
20145;BME280;10233;50.814;6.590;2023-04-07T01:01:21;100051.44;;;10.05;100.00
20145;BME280;10233;50.814;6.590;2023-04-07T01:02:36;100056.53;;;10.07;100.00
20145;BME280;10233;50.814;6.590;2023-04-07T01:04:01;100050.00;;;10.09;100.00
20145;BME280;10233;50.814;6.590;2023-04-07T01:06:14;100051.22;;;10.13;100.00
20145;BME280;10233;50.814;6.590;2023-04-07T01:07:29;100037.34;;;10.18;100.00
20145;BME280;10233;50.814;6.590;2023-04-07T01:08:53;100049.22;;;10.15;100.00
20145;BME280;10233;50.814;6.590;2023-04-07T01:10:01;100043.69;;;10.10;100.00
20145;BME280;10233;50.814;6.590;2023-04-07T01:11:13;100042.22;;;10.14;100.00
20145;BME280;10233;50.814;6.590;2023-04-07T01:13:31;100048.56;;;10.07;100.00
20145;BME280;10233;50.814;6.590;2023-04-07T01:14:59;100046.94;;;10.12;100.00
20145;BME280;10233;50.814;6.590;2023-04-07T01:16:18;100046.50;;;9.96;100.00
20145;BME280;10233;50.814;6.590;2023-04-07T01:17:25;100050.19;;;10.01;100.00
20145;BME280;10233;50.814;6.590;2023-04-07T01:18:31;100050.56;;;9.98;100.00
20145;BME280;10233;50.814;6.590;2023-04-07T01:19:36;100051.00;;;9.95;100.00
20145;BME280;10233;50.814;6.590;2023-04-07T01:20:39;100056.53;;;10.00;100.00
20145;BME280;10233;50.814;6.590;2023-04-07T01:21:43;100049.34;;;9.94;100.00
20145;BME280;10233;50.814;6.590;2023-04-07T01:22:51;100053.88;;;10.00;100.00
20145;BME280;10233;50.814;6.590;2023-04-07T01:26:49;100050.78;;;9.90;100.00
20145;BME280;10233;50.814;6.590;2023-04-07T01:30:20;100050.34;;;9.87;100.00
20145;BME280;10233;50.814;6.590;2023-04-07T01:31:25;100051.56;;;9.84;100.00
20145;BME280;10233;50.814;6.590;2023-04-07T01:32:26;100050.75;;;9.77;100.00
20145;BME280;10233;50.814;6.590;2023-04-07T01:33:30;100050.75;;;9.71;100.00
20145;BME280;10233;50.814;6.590;2023-04-07T01:34:32;100051.56;;;9.71;100.00
20145;BME280;10233;50.814;6.590;2023-04-07T01:35:34;100052.59;;;9.77;100.00
20145;BME280;10233;50.814;6.590;2023-04-07T01:36:36;100050.34;;;9.80;100.00
20145;BME280;10233;50.814;6.590;2023-04-07T01:37:37;100052.00;;;9.81;100.00
20145;BME280;10233;50.814;6.590;2023-04-07T01:38:38;100053.25;;;9.85;100.00
20145;BME280;10233;50.814;6.590;2023-04-07T01:39:39;100053.03;;;9.93;100.00
20145;BME280;10233;50.814;6.590;2023-04-07T01:40:40;100054.22;;;9.84;100.00
20145;BME280;10233;50.814;6.590;2023-04-07T01:41:42;100056.50;;;9.87;100.00
20145;BME280;10233;50.814;6.590;2023-04-07T01:42:44;100052.41;;;9.91;100.00
20145;BME280;10233;50.814;6.590;2023-04-07T01:43:46;100045.88;;;9.94;100.00
20145;BME280;10233;50.814;6.590;2023-04-07T01:44:47;100053.88;;;10.00;100.00
20145;BME280;10233;50.814;6.590;2023-04-07T01:45:51;100050.56;;;9.98;100.00
20145;BME280;10233;50.814;6.590;2023-04-07T01:46:54;100052.44;;;10.04;100.00
20145;BME280;10233;50.814;6.590;2023-04-07T01:47:56;100056.09;;;9.97;100.00
20145;BME280;10233;50.814;6.590;2023-04-07T01:48:57;100054.06;;;9.99;100.00
20145;BME280;10233;50.814;6.590;2023-04-07T01:50:00;100057.09;;;9.96;100.00
20145;BME280;10233;50.814;6.590;2023-04-07T01:51:04;100062.22;;;9.91;100.00
20145;BME280;10233;50.814;6.590;2023-04-07T01:52:06;100057.53;;;9.93;100.00
20145;BME280;10233;50.814;6.590;2023-04-07T01:53:07;100055.69;;;9.93;100.00
20145;BME280;10233;50.814;6.590;2023-04-07T01:54:08;100056.53;;;10.00;100.00
20145;BME280;10233;50.814;6.590;2023-04-07T01:55:09;100058.75;;;9.97;100.00
20145;BME280;10233;50.814;6.590;2023-04-07T01:56:16;100053.22;;;9.98;100.00
20145;BME280;10233;50.814;6.590;2023-04-07T01:57:19;100060.16;;;9.99;100.00
20145;BME280;10233;50.814;6.590;2023-04-07T01:58:23;100056.94;;;10.04;100.00
20145;BME280;10233;50.814;6.590;2023-04-07T01:59:25;100058.38;;;10.06;100.00
20145;BME280;10233;50.814;6.590;2023-04-07T02:00:27;100052.84;;;10.01;100.00
20145;BME280;10233;50.814;6.590;2023-04-07T02:01:28;100060.16;;;9.99;100.00
20145;BME280;10233;50.814;6.590;2023-04-07T02:02:30;100050.78;;;10.03;100.00
20145;BME280;10233;50.814;6.590;2023-04-07T02:03:55;100055.09;;;9.98;100.00
20145;BME280;10233;50.814;6.590;2023-04-07T02:05:00;100051.22;;;10.00;100.00
20145;BME280;10233;50.814;6.590;2023-04-07T02:06:08;100056.91;;;9.97;100.00
20145;BME280;10233;50.814;6.590;2023-04-07T02:07:27;100049.78;;;9.98;100.00
20145;BME280;10233;50.814;6.590;2023-04-07T02:08:29;100055.09;;;9.98;100.00
20145;BME280;10233;50.814;6.590;2023-04-07T02:09:32;100049.53;;;9.99;100.00
20145;BME280;10233;50.814;6.590;2023-04-07T02:10:34;100047.53;;;10.01;100.00
20145;BME280;10233;50.814;6.590;2023-04-07T02:11:37;100056.09;;;9.97;100.00
20145;BME280;10233;50.814;6.590;2023-04-07T02:12:40;100054.88;;;9.99;100.00
20145;BME280;10233;50.814;6.590;2023-04-07T02:13:48;100045.47;;;10.03;100.00
20145;BME280;10233;50.814;6.590;2023-04-07T02:14:53;100058.75;;;10.03;100.00
20145;BME280;10233;50.814;6.590;2023-04-07T02:15:55;100054.09;;;10.05;100.00
20145;BME280;10233;50.814;6.590;2023-04-07T02:16:56;100056.09;;;10.03;100.00
20145;BME280;10233;50.814;6.590;2023-04-07T02:17:59;100061.41;;;10.03;100.00
20145;BME280;10233;50.814;6.590;2023-04-07T02:19:01;100062.81;;;9.99;100.00
20145;BME280;10233;50.814;6.590;2023-04-07T02:20:05;100058.75;;;9.97;100.00
20145;BME280;10233;50.814;6.590;2023-04-07T02:21:11;100065.47;;;9.99;100.00
20145;BME280;10233;50.814;6.590;2023-04-07T02:22:14;100058.75;;;10.03;100.00
20145;BME280;10233;50.814;6.590;2023-04-07T02:23:15;100057.31;;;10.01;100.00
20145;BME280;10233;50.814;6.590;2023-04-07T02:24:19;100058.16;;;10.01;100.00
20145;BME280;10233;50.814;6.590;2023-04-07T02:25:29;100057.72;;;9.91;100.00
20145;BME280;10233;50.814;6.590;2023-04-07T02:26:36;100059.38;;;9.99;100.00
20145;BME280;10233;50.814;6.590;2023-04-07T02:27:37;100056.69;;;9.92;100.00
20145;BME280;10233;50.814;6.590;2023-04-07T02:28:38;100063.63;;;9.87;100.00
20145;BME280;10233;50.814;6.590;2023-04-07T02:29:38;100060.78;;;9.88;100.00
20145;BME280;10233;50.814;6.590;2023-04-07T02:30:39;100061.00;;;9.93;100.00
20145;BME280;10233;50.814;6.590;2023-04-07T02:31:39;100063.59;;;9.80;100.00
20145;BME280;10233;50.814;6.590;2023-04-07T02:32:40;100056.50;;;9.87;100.00
20145;BME280;10233;50.814;6.590;2023-04-07T02:33:41;100064.47;;;9.87;100.00
20145;BME280;10233;50.814;6.590;2023-04-07T02:34:41;100053.25;;;9.85;100.00
20145;BME280;10233;50.814;6.590;2023-04-07T02:35:42;100057.31;;;9.94;100.00
20145;BME280;10233;50.814;6.590;2023-04-07T02:36:42;100057.72;;;9.91;100.00
20145;BME280;10233;50.814;6.590;2023-04-07T02:37:44;100060.16;;;9.99;100.00
20145;BME280;10233;50.814;6.590;2023-04-07T02:38:45;100049.75;;;9.91;100.00
20145;BME280;10233;50.814;6.590;2023-04-07T02:39:46;100054.44;;;9.96;100.00
20145;BME280;10233;50.814;6.590;2023-04-07T02:40:46;100057.31;;;9.94;100.00
20145;BME280;10233;50.814;6.590;2023-04-07T02:41:47;100054.25;;;9.97;100.00
20145;BME280;10233;50.814;6.590;2023-04-07T02:42:47;100058.34;;;10.00;100.00
20145;BME280;10233;50.814;6.590;2023-04-07T02:43:48;100058.59;;;10.05;100.00
20145;BME280;10233;50.814;6.590;2023-04-07T02:44:50;100059.56;;;9.97;100.00
20145;BME280;10233;50.814;6.590;2023-04-07T02:45:50;100063.63;;;9.93;100.00
20145;BME280;10233;50.814;6.590;2023-04-07T02:46:51;100061.19;;;9.85;100.00
20145;BME280;10233;50.814;6.590;2023-04-07T02:47:52;100057.31;;;9.94;100.00
20145;BME280;10233;50.814;6.590;2023-04-07T02:48:53;100061.81;;;9.94;100.00
20145;BME280;10233;50.814;6.590;2023-04-07T02:49:54;100061.41;;;9.90;100.00
20145;BME280;10233;50.814;6.590;2023-04-07T02:50:54;100067.94;;;9.94;100.00
20145;BME280;10233;50.814;6.590;2023-04-07T02:51:55;100064.66;;;9.86;100.00
20145;BME280;10233;50.814;6.590;2023-04-07T02:52:55;100055.66;;;9.87;100.00
20145;BME280;10233;50.814;6.590;2023-04-07T02:53:56;100067.53;;;9.91;100.00
20145;BME280;10233;50.814;6.590;2023-04-07T02:54:57;100061.19;;;9.85;100.00
20145;BME280;10233;50.814;6.590;2023-04-07T02:56:00;100063.03;;;9.85;100.00
20145;BME280;10233;50.814;6.590;2023-04-07T02:57:00;100069.34;;;9.84;100.00
20145;BME280;10233;50.814;6.590;2023-04-07T02:58:01;100066.50;;;9.85;100.00
20145;BME280;10233;50.814;6.590;2023-04-07T02:59:11;100068.91;;;9.80;100.00
20145;BME280;10233;50.814;6.590;2023-04-07T03:00:15;100061.97;;;9.79;100.00
20145;BME280;10233;50.814;6.590;2023-04-07T03:01:36;100074.22;;;9.80;100.00
20145;BME280;10233;50.814;6.590;2023-04-07T03:02:38;100071.19;;;9.83;100.00
20145;BME280;10233;50.814;6.590;2023-04-07T03:03:38;100065.88;;;9.83;100.00
20145;BME280;10233;50.814;6.590;2023-04-07T03:04:52;100061.78;;;9.81;100.00
20145;BME280;10233;50.814;6.590;2023-04-07T03:05:54;100068.34;;;9.85;100.00
20145;BME280;10233;50.814;6.590;2023-04-07T03:06:55;100067.13;;;9.87;100.00
20145;BME280;10233;50.814;6.590;2023-04-07T03:07:56;100062.19;;;9.78;100.00
20145;BME280;10233;50.814;6.590;2023-04-07T03:08:56;100063.00;;;9.78;100.00
20145;BME280;10233;50.814;6.590;2023-04-07T03:09:57;100062.63;;;9.81;100.00
20145;BME280;10233;50.814;6.590;2023-04-07T03:10:57;100062.63;;;9.81;100.00
20145;BME280;10233;50.814;6.590;2023-04-07T03:12:02;100059.13;;;9.81;100.00
20145;BME280;10233;50.814;6.590;2023-04-07T03:13:07;100065.88;;;9.83;100.00
20145;BME280;10233;50.814;6.590;2023-04-07T03:14:08;100055.66;;;9.80;100.00
20145;BME280;10233;50.814;6.590;2023-04-07T03:15:16;100060.16;;;9.80;100.00
20145;BME280;10233;50.814;6.590;2023-04-07T03:16:20;100059.97;;;9.81;100.00
20145;BME280;10233;50.814;6.590;2023-04-07T03:17:33;100059.31;;;9.79;100.00
20145;BME280;10233;50.814;6.590;2023-04-07T03:18:34;100057.91;;;9.77;100.00
20145;BME280;10233;50.814;6.590;2023-04-07T03:19:35;100058.72;;;9.77;100.00
20145;BME280;10233;50.814;6.590;2023-04-07T03:20:36;100058.94;;;9.82;100.00
20145;BME280;10233;50.814;6.590;2023-04-07T03:21:42;100068.13;;;9.80;100.00
20145;BME280;10233;50.814;6.590;2023-04-07T03:22:43;100065.66;;;9.78;100.00
20145;BME280;10233;50.814;6.590;2023-04-07T03:23:52;100060.53;;;9.77;100.00
20145;BME280;10233;50.814;6.590;2023-04-07T03:24:53;100061.75;;;9.74;100.00
20145;BME280;10233;50.814;6.590;2023-04-07T03:25:56;100064.22;;;9.76;100.00
20145;BME280;10233;50.814;6.590;2023-04-07T03:26:58;100061.75;;;9.74;100.00
20145;BME280;10233;50.814;6.590;2023-04-07T03:28:11;100067.06;;;9.74;100.00
20145;BME280;10233;50.814;6.590;2023-04-07T03:29:13;100069.91;;;9.73;100.00
20145;BME280;10233;50.814;6.590;2023-04-07T03:30:16;100065.66;;;9.78;100.00
20145;BME280;10233;50.814;6.590;2023-04-07T03:31:18;100069.34;;;9.77;100.00
20145;BME280;10233;50.814;6.590;2023-04-07T03:32:19;100068.94;;;9.74;100.00
20145;BME280;10233;50.814;6.590;2023-04-07T03:33:20;100071.78;;;9.72;100.00
20145;BME280;10233;50.814;6.590;2023-04-07T03:34:20;100069.50;;;9.69;100.00
20145;BME280;10233;50.814;6.590;2023-04-07T03:35:21;100067.72;;;9.76;100.00
20145;BME280;10233;50.814;6.590;2023-04-07T03:36:21;100069.09;;;9.66;100.00
20145;BME280;10233;50.814;6.590;2023-04-07T03:37:24;100068.72;;;9.69;100.00
20145;BME280;10233;50.814;6.590;2023-04-07T03:38:25;100068.72;;;9.69;100.00
20145;BME280;10233;50.814;6.590;2023-04-07T03:39:30;100070.94;;;9.72;100.00
20145;BME280;10233;50.814;6.590;2023-04-07T03:40:33;100071.56;;;9.67;100.00
20145;BME280;10233;50.814;6.590;2023-04-07T03:41:35;100074.03;;;9.69;100.00
20145;BME280;10233;50.814;6.590;2023-04-07T03:42:35;100062.78;;;9.67;100.00
20145;BME280;10233;50.814;6.590;2023-04-07T03:43:39;100071.56;;;9.67;100.00
20145;BME280;10233;50.814;6.590;2023-04-07T03:44:40;100068.28;;;9.72;100.00
20145;BME280;10233;50.814;6.590;2023-04-07T03:45:41;100075.03;;;9.61;100.00
20145;BME280;10233;50.814;6.590;2023-04-07T03:46:43;100071.75;;;9.66;100.00
20145;BME280;10233;50.814;6.590;2023-04-07T03:47:45;100074.19;;;9.61;100.00
20145;BME280;10233;50.814;6.590;2023-04-07T03:48:46;100079.72;;;9.66;100.00
20145;BME280;10233;50.814;6.590;2023-04-07T03:49:47;100071.13;;;9.57;100.00
20145;BME280;10233;50.814;6.590;2023-04-07T03:50:47;100068.50;;;9.64;100.00
20145;BME280;10233;50.814;6.590;2023-04-07T03:51:51;100070.94;;;9.59;100.00
20145;BME280;10233;50.814;6.590;2023-04-07T03:52:53;100066.84;;;9.63;100.00
20145;BME280;10233;50.814;6.590;2023-04-07T03:53:59;100068.69;;;9.62;100.00
20145;BME280;10233;50.814;6.590;2023-04-07T03:55:06;100071.13;;;9.57;100.00
20145;BME280;10233;50.814;6.590;2023-04-07T03:56:07;100074.81;;;9.56;100.00
20145;BME280;10233;50.814;6.590;2023-04-07T03:57:25;100076.03;;;9.60;100.00
20145;BME280;10233;50.814;6.590;2023-04-07T03:58:26;100078.06;;;9.58;100.00
20145;BME280;10233;50.814;6.590;2023-04-07T03:59:27;100076.03;;;9.60;100.00
20145;BME280;10233;50.814;6.590;2023-04-07T04:00:33;100078.03;;;9.52;100.00
20145;BME280;10233;50.814;6.590;2023-04-07T04:01:45;100082.13;;;9.54;100.00
20145;BME280;10233;50.814;6.590;2023-04-07T04:02:49;100080.69;;;9.52;100.00
20145;BME280;10233;50.814;6.590;2023-04-07T04:03:53;100081.53;;;9.52;100.00
20145;BME280;10233;50.814;6.590;2023-04-07T04:04:59;100081.72;;;9.51;100.00
20145;BME280;10233;50.814;6.590;2023-04-07T04:06:00;100079.91;;;9.51;100.00
20145;BME280;10233;50.814;6.590;2023-04-07T04:07:03;100078.88;;;9.52;100.00
20145;BME280;10233;50.814;6.590;2023-04-07T04:08:24;100085.81;;;9.53;100.00
20145;BME280;10233;50.814;6.590;2023-04-07T04:09:26;100081.75;;;9.57;100.00
20145;BME280;10233;50.814;6.590;2023-04-07T04:10:27;100086.22;;;9.57;100.00
20145;BME280;10233;50.814;6.590;2023-04-07T04:11:29;100089.28;;;9.60;100.00
20145;BME280;10233;50.814;6.590;2023-04-07T04:12:34;100081.31;;;9.60;100.00
20145;BME280;10233;50.814;6.590;2023-04-07T04:13:42;100085.84;;;9.60;100.00
20145;BME280;10233;50.814;6.590;2023-04-07T04:14:42;100081.34;;;9.54;100.00
20145;BME280;10233;50.814;6.590;2023-04-07T04:15:44;100085.41;;;9.56;100.00
20145;BME280;10233;50.814;6.590;2023-04-07T04:16:48;100086.19;;;9.50;100.00
20145;BME280;10233;50.814;6.590;2023-04-07T04:18:13;100083.34;;;9.52;100.00
20145;BME280;10233;50.814;6.590;2023-04-07T04:19:32;100087.84;;;9.51;100.00
20145;BME280;10233;50.814;6.590;2023-04-07T04:20:37;100090.28;;;9.53;100.00
20145;BME280;10233;50.814;6.590;2023-04-07T04:21:39;100091.72;;;9.49;100.00
20145;BME280;10233;50.814;6.590;2023-04-07T04:22:40;100090.66;;;9.43;100.00
20145;BME280;10233;50.814;6.590;2023-04-07T04:23:41;100094.56;;;9.47;100.00
20145;BME280;10233;50.814;6.590;2023-04-07T04:24:42;100087.38;;;9.41;100.00
20145;BME280;10233;50.814;6.590;2023-04-07T04:25:45;100087.56;;;9.33;100.00
20145;BME280;10233;50.814;6.590;2023-04-07T04:26:46;100089.38;;;9.33;100.00
20145;BME280;10233;50.814;6.590;2023-04-07T04:27:48;100098.53;;;9.24;100.00
20145;BME280;10233;50.814;6.590;2023-04-07T04:28:55;100091.16;;;9.19;100.00
20145;BME280;10233;50.814;6.590;2023-04-07T04:29:56;100093.81;;;9.19;100.00
20145;BME280;10233;50.814;6.590;2023-04-07T04:31:07;100088.09;;;9.16;100.00
20145;BME280;10233;50.814;6.590;2023-04-07T04:32:13;100090.13;;;9.14;100.00
20145;BME280;10233;50.814;6.590;2023-04-07T04:33:16;100093.97;;;9.11;100.00
20145;BME280;10233;50.814;6.590;2023-04-07T04:34:25;100086.66;;;9.13;100.00
20145;BME280;10233;50.814;6.590;2023-04-07T04:35:28;100095.22;;;9.15;100.00
20145;BME280;10233;50.814;6.590;2023-04-07T04:36:38;100095.81;;;9.11;100.00
20145;BME280;10233;50.814;6.590;2023-04-07T04:37:40;100100.50;;;9.09;100.00
20145;BME280;10233;50.814;6.590;2023-04-07T04:38:44;100098.44;;;9.04;100.00
20145;BME280;10233;50.814;6.590;2023-04-07T04:39:54;100095.75;;;8.98;100.00
20145;BME280;10233;50.814;6.590;2023-04-07T04:40:56;100099.84;;;9.00;100.00
20145;BME280;10233;50.814;6.590;2023-04-07T04:42:04;100096.56;;;8.98;100.00
20145;BME280;10233;50.814;6.590;2023-04-07T04:43:09;100098.78;;;8.95;100.00
20145;BME280;10233;50.814;6.590;2023-04-07T04:44:11;100095.56;;;8.99;100.00
20145;BME280;10233;50.814;6.590;2023-04-07T04:45:14;100105.94;;;8.94;100.00
20145;BME280;10233;50.814;6.590;2023-04-07T04:46:19;100109.59;;;8.93;100.00
20145;BME280;10233;50.814;6.590;2023-04-07T04:47:22;100107.13;;;8.92;100.00
20145;BME280;10233;50.814;6.590;2023-04-07T04:48:23;100109.59;;;8.93;100.00
20145;BME280;10233;50.814;6.590;2023-04-07T04:49:23;100108.16;;;8.91;100.00
20145;BME280;10233;50.814;6.590;2023-04-07T04:50:25;100104.84;;;8.89;100.00
20145;BME280;10233;50.814;6.590;2023-04-07T04:51:27;100109.38;;;8.95;100.00
20145;BME280;10233;50.814;6.590;2023-04-07T04:52:34;100113.84;;;8.88;100.00
20145;BME280;10233;50.814;6.590;2023-04-07T04:53:35;100114.44;;;8.90;100.00
20145;BME280;10233;50.814;6.590;2023-04-07T04:54:36;100120.81;;;8.95;100.00
20145;BME280;10233;50.814;6.590;2023-04-07T04:55:37;100112.00;;;8.88;100.00
20145;BME280;10233;50.814;6.590;2023-04-07T04:56:40;100115.88;;;8.92;100.00
20145;BME280;10233;50.814;6.590;2023-04-07T04:57:42;100118.13;;;8.89;100.00
20145;BME280;10233;50.814;6.590;2023-04-07T04:58:46;100118.06;;;8.82;100.00
20145;BME280;10233;50.814;6.590;2023-04-07T04:59:53;100116.66;;;8.86;100.00
20145;BME280;10233;50.814;6.590;2023-04-07T05:00:53;100118.53;;;8.86;100.00
20145;BME280;10233;50.814;6.590;2023-04-07T05:02:02;100114.19;;;8.78;100.00
20145;BME280;10233;50.814;6.590;2023-04-07T05:03:02;100116.44;;;8.81;100.00
20145;BME280;10233;50.814;6.590;2023-04-07T05:04:09;100115.41;;;8.76;100.00
20145;BME280;10233;50.814;6.590;2023-04-07T05:05:11;100123.91;;;8.71;100.00
20145;BME280;10233;50.814;6.590;2023-04-07T05:06:12;100125.34;;;8.74;100.00
20145;BME280;10233;50.814;6.590;2023-04-07T05:07:15;100125.34;;;8.74;100.00
20145;BME280;10233;50.814;6.590;2023-04-07T05:08:15;100126.13;;;8.68;100.00
20145;BME280;10233;50.814;6.590;2023-04-07T05:09:16;100125.53;;;8.72;100.00
20145;BME280;10233;50.814;6.590;2023-04-07T05:10:19;100117.81;;;8.71;100.00
20145;BME280;10233;50.814;6.590;2023-04-07T05:11:23;100126.31;;;8.66;100.00
20145;BME280;10233;50.814;6.590;2023-04-07T05:12:26;100125.31;;;8.67;100.00
20145;BME280;10233;50.814;6.590;2023-04-07T05:13:32;100123.44;;;8.61;100.00
20145;BME280;10233;50.814;6.590;2023-04-07T05:14:35;100137.03;;;8.58;100.00
20145;BME280;10233;50.814;6.590;2023-04-07T05:15:40;100127.75;;;8.69;100.00
20145;BME280;10233;50.814;6.590;2023-04-07T05:16:44;100129.41;;;8.70;100.00
20145;BME280;10233;50.814;6.590;2023-04-07T05:17:50;100127.38;;;8.72;100.00
20145;BME280;10233;50.814;6.590;2023-04-07T05:18:55;100131.06;;;8.71;100.00
20145;BME280;10233;50.814;6.590;2023-04-07T05:19:59;100123.09;;;8.71;100.00
20145;BME280;10233;50.814;6.590;2023-04-07T05:21:11;100125.34;;;8.74;100.00
20145;BME280;10233;50.814;6.590;2023-04-07T05:22:11;100127.81;;;8.75;100.00
20145;BME280;10233;50.814;6.590;2023-04-07T05:23:21;100130.72;;;8.80;100.00
20145;BME280;10233;50.814;6.590;2023-04-07T05:24:25;100132.38;;;8.88;100.00
20145;BME280;10233;50.814;6.590;2023-04-07T05:25:29;100126.72;;;8.97;100.00
20145;BME280;10233;50.814;6.590;2023-04-07T05:26:33;100136.13;;;9.00;100.00
20145;BME280;10233;50.814;6.590;2023-04-07T05:27:37;100134.34;;;9.07;100.00
20145;BME280;10233;50.814;6.590;2023-04-07T05:28:44;100136.81;;;9.08;100.00
20145;BME280;10233;50.814;6.590;2023-04-07T05:29:50;100134.91;;;9.02;100.00
20145;BME280;10233;50.814;6.590;2023-04-07T05:30:59;100128.16;;;9.00;100.00
20145;BME280;10233;50.814;6.590;2023-04-07T05:32:04;100137.19;;;9.05;100.00
20145;BME280;10233;50.814;6.590;2023-04-07T05:33:05;100138.81;;;9.06;100.00
20145;BME280;10233;50.814;6.590;2023-04-07T05:34:15;100135.13;;;9.01;100.00
20145;BME280;10233;50.814;6.590;2023-04-07T05:35:22;100133.75;;;9.11;100.00
20145;BME280;10233;50.814;6.590;2023-04-07T05:36:28;100136.03;;;9.14;100.00
20145;BME280;10233;50.814;6.590;2023-04-07T05:37:31;100135.78;;;9.09;100.00
20145;BME280;10233;50.814;6.590;2023-04-07T05:38:35;100136.81;;;9.08;100.00